Terminal Aerodrome Forecast
Issued by NWS

Home | Current Version | Previous Version | Text Only | Print | Product List | Glossary On
Versions: 1 2 3 4 5 6 7 8 9 10 11 12 13 14 15
000
FTUS42 TJSJ 240500
TAFJBQ
TAF
TJBQ 240531Z 2406/2506 11005KT P6SM SCT050
     FM241330 VRB06KT P6SM FEW025 SCT050
     FM241630 07012KT P6SM VCTS SCT025CB BKN050
     FM242230 11005KT P6SM SCT025
      AMD NOT SKED TIL 241100=

USA.gov is the U.S. government's official web portal to all federal, state and local government web resources and services.